createdAt,value
2023-01-28T00:00:35.507Z,2.51
2023-01-28T00:03:24.095Z,2.52
2023-01-28T00:06:14.686Z,2.51
2023-01-28T00:09:03.177Z,2.63
2023-01-28T00:11:51.647Z,2.67
2023-01-28T00:14:41.504Z,2.66
2023-01-28T00:17:30.085Z,2.60
2023-01-28T00:20:18.670Z,2.64
2023-01-28T00:23:07.324Z,2.61
2023-01-28T00:25:55.906Z,2.64
2023-01-28T00:28:45.189Z,2.71
2023-01-28T00:31:35.411Z,2.64
2023-01-28T00:34:24.033Z,2.63
2023-01-28T00:37:12.516Z,2.64
2023-01-28T00:40:00.992Z,2.56
2023-01-28T00:42:49.415Z,2.59
2023-01-28T00:45:39.060Z,2.59
2023-01-28T00:48:28.954Z,2.63
2023-01-28T00:51:20.107Z,2.60
2023-01-28T00:54:08.903Z,2.57
2023-01-28T00:56:57.375Z,2.52
2023-01-28T00:59:45.806Z,2.50
2023-01-28T01:02:34.374Z,2.53
2023-01-28T01:05:24.244Z,2.57
2023-01-28T01:08:12.709Z,2.55
2023-01-28T01:11:01.269Z,2.53
2023-01-28T01:13:54.906Z,2.55
2023-01-28T01:16:43.721Z,2.54
2023-01-28T01:19:32.361Z,2.50
2023-01-28T01:22:22.206Z,2.50
2023-01-28T01:25:11.679Z,2.47
2023-01-28T01:28:00.128Z,2.45
2023-01-28T01:30:49.036Z,1.80
2023-01-28T01:33:37.526Z,2.43
2023-01-28T01:36:26.090Z,2.40
2023-01-28T01:39:15.920Z,2.37
2023-01-28T01:42:04.798Z,2.09
2023-01-28T01:45:03.348Z,2.38
2023-01-28T01:47:57.268Z,2.34
2023-01-28T01:50:49.727Z,2.37
2023-01-28T01:53:39.000Z,2.35
2023-01-28T01:56:31.382Z,2.35
2023-01-28T01:59:24.607Z,2.36
2023-01-28T02:02:13.641Z,2.33
2023-01-28T02:05:02.361Z,2.34
2023-01-28T02:07:54.916Z,2.31
2023-01-28T02:10:43.452Z,2.27
2023-01-28T02:13:36.967Z,2.28
2023-01-28T02:16:26.135Z,2.28
2023-01-28T02:19:14.855Z,2.28
2023-01-28T02:22:11.675Z,2.29
2023-01-28T02:25:17.511Z,2.27
2023-01-28T02:28:15.768Z,2.01
2023-01-28T02:31:10.921Z,2.24
2023-01-28T02:34:04.042Z,2.23
2023-01-28T02:36:55.228Z,2.22
2023-01-28T02:39:48.132Z,1.62
2023-01-28T02:42:38.866Z,2.21
2023-01-28T02:45:52.973Z,2.20
2023-01-28T02:48:40.561Z,2.19
2023-01-28T02:51:35.197Z,2.20
2023-01-28T02:54:33.504Z,2.18
2023-01-28T02:57:31.832Z,2.16
2023-01-28T03:00:24.522Z,2.13
2023-01-28T03:03:18.379Z,2.16
2023-01-28T03:06:09.836Z,2.14
2023-01-28T03:09:17.921Z,2.15
2023-01-28T03:12:25.699Z,2.16
2023-01-28T03:15:33.804Z,2.20
2023-01-28T03:18:44.070Z,2.21
2023-01-28T03:21:51.358Z,2.20
2023-01-28T03:25:03.052Z,2.20
2023-01-28T03:28:13.095Z,2.06
2023-01-28T03:31:21.855Z,2.08
2023-01-28T03:34:29.981Z,2.13
2023-01-28T03:37:18.512Z,2.15
2023-01-28T03:40:08.384Z,2.17
2023-01-28T03:42:57.132Z,2.16
2023-01-28T03:45:46.227Z,2.15
2023-01-28T03:48:34.935Z,2.17
2023-01-28T03:51:24.719Z,2.18
2023-01-28T03:54:13.638Z,2.22
2023-01-28T03:57:02.453Z,2.21
2023-01-28T03:59:52.599Z,2.25
2023-01-28T04:02:41.083Z,2.26
2023-01-28T04:05:29.630Z,2.25
2023-01-28T04:08:19.424Z,2.22
2023-01-28T04:11:16.521Z,2.21
2023-01-28T04:14:05.229Z,2.21
2023-01-28T04:16:54.925Z,2.21
2023-01-28T04:19:43.442Z,2.23
2023-01-28T04:22:31.837Z,2.26
2023-01-28T04:25:21.673Z,2.27
2023-01-28T04:28:10.145Z,2.26
2023-01-28T04:30:58.688Z,2.26
2023-01-28T04:33:47.255Z,2.28
2023-01-28T04:36:35.700Z,2.29
2023-01-28T04:39:24.170Z,2.28
2023-01-28T04:42:13.968Z,2.34
2023-01-28T04:45:02.456Z,2.33
2023-01-28T04:47:51.323Z,2.29
2023-01-28T04:50:39.860Z,2.34
2023-01-28T04:53:28.393Z,2.36
2023-01-28T04:56:16.833Z,2.33
2023-01-28T04:59:06.674Z,2.34
2023-01-28T05:01:55.187Z,2.47
2023-01-28T05:04:43.708Z,2.51
2023-01-28T05:07:32.143Z,2.45
2023-01-28T05:10:20.721Z,2.46
2023-01-28T05:13:09.296Z,2.43
2023-01-28T05:15:59.078Z,2.35
2023-01-28T05:18:48.208Z,2.31
2023-01-28T05:21:36.673Z,2.17
2023-01-28T05:24:25.148Z,2.14
2023-01-28T05:27:13.664Z,2.22
2023-01-28T05:30:02.162Z,2.22
2023-01-28T05:32:56.062Z,2.14
2023-01-28T05:35:44.570Z,2.14
2023-01-28T05:38:33.074Z,2.13
2023-01-28T05:41:21.491Z,2.08
2023-01-28T05:44:10.003Z,2.11
2023-01-28T05:46:58.480Z,2.08
2023-01-28T05:49:48.364Z,2.12
2023-01-28T05:52:36.812Z,2.17
2023-01-28T05:55:26.625Z,2.18
2023-01-28T05:58:15.119Z,2.20
2023-01-28T06:01:03.647Z,2.19
2023-01-28T06:03:52.125Z,2.28
2023-01-28T06:06:41.954Z,2.27
2023-01-28T06:09:30.456Z,2.27
2023-01-28T06:12:18.980Z,2.22
2023-01-28T06:15:08.591Z,2.17
2023-01-28T06:17:57.075Z,2.20
2023-01-28T06:20:45.585Z,2.09
2023-01-28T06:23:35.419Z,2.15
2023-01-28T06:26:24.318Z,2.18
2023-01-28T06:29:12.762Z,2.18
2023-01-28T06:32:01.249Z,2.16
2023-01-28T06:34:49.913Z,2.22
2023-01-28T06:37:39.653Z,2.19
2023-01-28T06:40:29.506Z,2.16
2023-01-28T06:43:18.186Z,2.30
2023-01-28T06:46:07.142Z,2.28
2023-01-28T06:48:55.714Z,2.35
2023-01-28T06:51:44.306Z,2.33
2023-01-28T06:54:32.776Z,2.33
2023-01-28T06:57:22.583Z,2.39
2023-01-28T07:00:13.537Z,2.38
2023-01-28T07:03:02.307Z,2.39
2023-01-28T07:05:50.948Z,2.38
2023-01-28T07:08:39.890Z,2.36
2023-01-28T07:11:28.363Z,2.36
2023-01-28T07:14:18.179Z,2.38
2023-01-28T07:17:06.753Z,2.27
2023-01-28T07:19:55.274Z,2.34
2023-01-28T07:22:44.584Z,2.40
2023-01-28T07:25:33.078Z,2.44
2023-01-28T07:28:22.166Z,2.47
2023-01-28T07:31:12.074Z,2.56
2023-01-28T07:34:00.620Z,2.47
2023-01-28T07:36:49.075Z,2.41
2023-01-28T07:39:37.529Z,2.42
2023-01-28T07:42:26.025Z,2.49
2023-01-28T07:45:14.800Z,2.43
2023-01-28T07:48:06.656Z,2.49
2023-01-28T07:50:55.216Z,2.52
2023-01-28T07:53:43.696Z,2.72
2023-01-28T07:56:32.336Z,2.77
2023-01-28T07:59:20.785Z,2.68
2023-01-28T08:02:12.422Z,2.73
2023-01-28T08:05:02.350Z,2.71
2023-01-28T08:07:50.889Z,2.63
2023-01-28T08:10:40.055Z,2.69
2023-01-28T08:13:29.012Z,2.68
2023-01-28T08:16:17.573Z,2.71
2023-01-28T08:19:06.101Z,2.68
2023-01-28T08:21:55.945Z,2.79
2023-01-28T08:24:44.470Z,2.81
2023-01-28T08:27:33.391Z,2.77
2023-01-28T08:30:22.119Z,2.73
2023-01-28T08:33:12.190Z,2.79
2023-01-28T08:36:03.986Z,2.70
2023-01-28T08:38:55.140Z,2.98
2023-01-28T08:41:43.647Z,2.81
2023-01-28T08:44:32.127Z,2.95
2023-01-28T08:47:20.666Z,2.88
2023-01-28T08:50:10.711Z,2.89
2023-01-28T08:53:00.778Z,2.75
2023-01-28T08:55:50.640Z,2.99
2023-01-28T08:58:39.276Z,3.02
2023-01-28T09:01:29.420Z,2.95
2023-01-28T09:04:18.076Z,3.04
2023-01-28T09:07:06.520Z,3.20
2023-01-28T09:09:55.040Z,3.13
2023-01-28T09:12:45.223Z,3.07
2023-01-28T09:15:34.085Z,3.06
2023-01-28T09:18:22.910Z,3.07
2023-01-28T09:21:11.562Z,3.06
2023-01-28T09:24:00.163Z,3.08
2023-01-28T09:26:49.645Z,3.02
2023-01-28T09:29:39.473Z,3.09
2023-01-28T09:32:28.164Z,3.17
2023-01-28T09:35:17.860Z,3.15
2023-01-28T09:38:06.348Z,3.08
2023-01-28T09:40:56.087Z,2.98
2023-01-28T09:44:07.075Z,3.16
2023-01-28T09:47:02.829Z,3.21
2023-01-28T09:49:53.650Z,3.20
2023-01-28T09:52:42.454Z,3.25
2023-01-28T09:55:33.618Z,3.25
2023-01-28T09:58:22.203Z,3.23
2023-01-28T10:01:27.217Z,3.26
2023-01-28T10:04:26.000Z,3.30
2023-01-28T10:07:28.844Z,3.27
2023-01-28T10:10:19.391Z,3.19
2023-01-28T10:13:19.655Z,3.26
2023-01-28T10:16:21.567Z,3.30
2023-01-28T10:19:16.958Z,3.27
2023-01-28T10:22:08.860Z,3.09
2023-01-28T10:25:01.853Z,3.15
2023-01-28T10:27:51.924Z,3.17
2023-01-28T10:30:41.940Z,3.20
2023-01-28T10:33:32.868Z,3.23
2023-01-28T10:36:21.357Z,3.31
2023-01-28T10:39:12.441Z,3.35
2023-01-28T10:42:00.956Z,3.28
2023-01-28T10:44:50.748Z,3.31
2023-01-28T10:47:40.983Z,3.05
2023-01-28T10:50:31.404Z,3.19
2023-01-28T10:53:19.964Z,3.14
2023-01-28T10:56:11.572Z,3.18
2023-01-28T10:59:02.572Z,3.24
2023-01-28T11:01:53.721Z,3.28
2023-01-28T11:04:42.309Z,3.26
2023-01-28T11:07:30.848Z,3.20
2023-01-28T11:10:32.227Z,2.82
2023-01-28T11:13:25.002Z,3.39
2023-01-28T11:16:17.511Z,3.34
2023-01-28T11:19:06.524Z,3.38
2023-01-28T11:21:56.844Z,3.51
2023-01-28T11:24:45.404Z,3.43
2023-01-28T11:27:34.389Z,3.37
2023-01-28T11:30:26.193Z,3.42
2023-01-28T11:33:19.020Z,3.26
2023-01-28T11:36:13.074Z,3.33
2023-01-28T11:39:05.366Z,3.38
2023-01-28T11:41:54.312Z,3.40
2023-01-28T11:44:42.981Z,3.45
2023-01-28T11:47:25.111Z,3.43
2023-01-28T11:50:03.140Z,3.29
2023-01-28T11:53:04.411Z,3.36
2023-01-28T11:55:38.776Z,3.39
2023-01-28T11:58:18.481Z,3.41
2023-01-28T12:00:51.143Z,3.42
2023-01-28T12:03:36.123Z,3.42
2023-01-28T12:06:18.882Z,3.54
2023-01-28T12:08:52.433Z,3.56
2023-01-28T12:11:47.807Z,3.67
2023-01-28T12:14:25.139Z,3.69
2023-01-28T12:17:20.367Z,3.79
2023-01-28T12:20:17.656Z,3.64
2023-01-28T12:23:21.646Z,3.77
2023-01-28T12:26:12.727Z,3.81
2023-01-28T12:29:08.400Z,3.83
2023-01-28T12:32:18.988Z,3.99
2023-01-28T12:35:32.610Z,3.94
2023-01-28T12:38:26.734Z,3.90
2023-01-28T12:41:16.442Z,4.03
2023-01-28T12:44:07.680Z,4.04
2023-01-28T12:46:58.708Z,3.86
2023-01-28T12:49:50.747Z,3.81
2023-01-28T12:52:44.231Z,3.90
2023-01-28T12:55:40.658Z,3.93
2023-01-28T12:58:38.390Z,3.90
2023-01-28T13:01:30.332Z,3.90
2023-01-28T13:04:26.686Z,3.72
2023-01-28T13:07:18.151Z,3.78
2023-01-28T13:10:15.004Z,3.74
2023-01-28T13:13:04.162Z,3.85
2023-01-28T13:15:52.628Z,3.77
2023-01-28T13:18:46.244Z,3.78
2023-01-28T13:21:47.490Z,3.84
2023-01-28T13:24:37.606Z,3.84
2023-01-28T13:27:29.096Z,3.57
2023-01-28T13:30:26.830Z,3.67
2023-01-28T13:33:29.293Z,3.74
2023-01-28T13:36:25.893Z,3.67
2023-01-28T13:39:19.846Z,3.72
2023-01-28T13:42:23.406Z,3.72
2023-01-28T13:45:24.689Z,3.70
2023-01-28T13:48:24.606Z,3.74
2023-01-28T13:51:20.829Z,3.70
2023-01-28T13:54:15.553Z,3.79
2023-01-28T13:57:17.446Z,3.79
2023-01-28T14:00:09.672Z,3.80
2023-01-28T14:03:39.854Z,3.85
2023-01-28T14:07:09.962Z,3.78
2023-01-28T14:10:29.991Z,3.71
2023-01-28T14:13:34.854Z,3.57
2023-01-28T14:16:35.897Z,3.79
2023-01-28T14:19:28.233Z,3.75
2023-01-28T14:22:20.122Z,3.74
2023-01-28T14:25:14.303Z,3.80
2023-01-28T14:28:04.493Z,3.70
2023-01-28T14:30:56.205Z,3.88
2023-01-28T14:33:44.833Z,3.85
2023-01-28T14:36:38.014Z,3.95
2023-01-28T14:39:29.112Z,3.85
2023-01-28T14:42:22.063Z,3.88
2023-01-28T14:45:20.182Z,3.73
2023-01-28T14:48:21.649Z,3.88
2023-01-28T14:51:22.521Z,3.77
2023-01-28T14:54:23.502Z,3.82
2023-01-28T14:57:25.245Z,3.78
2023-01-28T15:00:19.636Z,3.73
2023-01-28T15:03:24.763Z,3.73
2023-01-28T15:06:15.722Z,3.82
2023-01-28T15:09:08.952Z,3.42
2023-01-28T15:11:58.488Z,3.78
2023-01-28T15:14:49.061Z,3.84
2023-01-28T15:17:37.806Z,3.82
2023-01-28T15:20:26.392Z,3.80
2023-01-28T15:26:14.753Z,3.74
2023-01-28T15:29:03.360Z,3.73
2023-01-28T15:31:53.680Z,3.68
2023-01-28T15:34:47.182Z,3.90
2023-01-28T15:37:35.697Z,3.64
2023-01-28T15:40:25.914Z,3.89
2023-01-28T15:43:22.232Z,3.76
2023-01-28T15:46:12.508Z,3.69
2023-01-28T15:49:04.127Z,3.65
2023-01-28T15:51:52.669Z,3.65
2023-01-28T15:54:41.920Z,3.67
2023-01-28T15:57:32.007Z,3.57
2023-01-28T16:00:21.753Z,3.53
2023-01-28T16:03:11.182Z,3.53
2023-01-28T16:06:03.113Z,3.25
2023-01-28T16:08:55.378Z,3.18
2023-01-28T16:11:45.514Z,3.18
2023-01-28T16:14:40.366Z,3.20
2023-01-28T16:17:32.309Z,3.24
2023-01-28T16:20:23.880Z,3.22
2023-01-28T16:23:24.420Z,3.42
2023-01-28T16:26:22.580Z,3.30
2023-01-28T16:29:14.732Z,3.41
2023-01-28T16:32:04.126Z,3.38
2023-01-28T16:34:52.678Z,3.40
2023-01-28T16:37:42.387Z,3.43
2023-01-28T16:40:32.483Z,3.29
2023-01-28T16:43:20.984Z,3.41
2023-01-28T16:46:13.375Z,3.34
2023-01-28T16:49:02.916Z,3.28
2023-01-28T16:51:51.496Z,3.28
2023-01-28T16:54:45.386Z,3.21
2023-01-28T16:57:36.857Z,3.07
2023-01-28T17:00:27.400Z,2.96
2023-01-28T17:03:16.115Z,3.35
2023-01-28T17:06:04.907Z,3.30
2023-01-28T17:08:53.352Z,3.25
2023-01-28T17:11:41.998Z,3.24
2023-01-28T17:14:31.919Z,3.17
2023-01-28T17:17:20.378Z,3.15
2023-01-28T17:20:10.454Z,3.11
2023-01-28T17:22:59.041Z,3.06
2023-01-28T17:25:47.528Z,2.98
2023-01-28T17:28:36.311Z,3.07
2023-01-28T17:31:27.394Z,3.04
2023-01-28T17:34:16.004Z,3.18
2023-01-28T17:37:04.527Z,2.92
2023-01-28T17:39:53.031Z,3.00
2023-01-28T17:42:41.521Z,3.03
2023-01-28T17:45:31.483Z,2.94
2023-01-28T17:48:21.339Z,2.94
2023-01-28T17:51:10.044Z,2.91
2023-01-28T17:53:58.564Z,2.93
2023-01-28T17:56:47.294Z,3.03
2023-01-28T17:59:35.978Z,3.00
2023-01-28T18:02:24.484Z,2.94
2023-01-28T18:05:15.114Z,2.82
2023-01-28T18:08:04.754Z,2.77
2023-01-28T18:10:55.128Z,2.74
2023-01-28T18:13:44.116Z,2.82
2023-01-28T18:16:32.578Z,2.81
2023-01-28T18:19:21.291Z,2.87
2023-01-28T18:22:13.737Z,2.83
2023-01-28T18:25:02.372Z,2.80
2023-01-28T18:27:52.149Z,2.81
2023-01-28T18:30:41.041Z,2.87
2023-01-28T18:33:33.978Z,2.87
2023-01-28T18:36:22.596Z,2.83
2023-01-28T18:39:13.696Z,2.85
2023-01-28T18:42:02.237Z,2.75
2023-01-28T18:44:50.917Z,2.61
2023-01-28T18:47:39.374Z,2.53
2023-01-28T18:50:28.059Z,2.58
2023-01-28T18:53:16.720Z,2.64
2023-01-28T18:56:07.913Z,2.70
2023-01-28T18:58:57.655Z,2.55
2023-01-28T19:01:47.841Z,2.57
2023-01-28T19:04:36.514Z,2.55
2023-01-28T19:07:25.348Z,2.49
2023-01-28T19:10:13.991Z,2.58
2023-01-28T19:13:03.918Z,2.55
2023-01-28T19:15:53.052Z,2.60
2023-01-28T19:18:41.672Z,2.52
2023-01-28T19:21:31.639Z,2.53
2023-01-28T19:24:20.209Z,2.53
2023-01-28T19:27:08.919Z,2.25
2023-01-28T19:29:58.787Z,2.26
2023-01-28T19:32:49.020Z,2.54
2023-01-28T19:35:37.998Z,2.49
2023-01-28T19:38:26.831Z,2.49
2023-01-28T19:41:17.004Z,2.59
2023-01-28T19:44:05.875Z,2.54
2023-01-28T19:46:55.772Z,2.49
2023-01-28T19:49:44.355Z,2.50
2023-01-28T19:52:33.101Z,2.15
2023-01-28T19:55:21.845Z,2.30
2023-01-28T19:58:11.613Z,2.39
2023-01-28T20:01:05.265Z,2.36
2023-01-28T20:03:58.676Z,2.27
2023-01-28T20:06:47.240Z,2.22
2023-01-28T20:09:35.773Z,2.27
2023-01-28T20:12:26.989Z,2.28
2023-01-28T20:15:15.800Z,2.18
2023-01-28T20:18:05.045Z,2.14
2023-01-28T20:20:55.652Z,2.23
2023-01-28T20:23:44.184Z,2.11
2023-01-28T20:26:37.414Z,1.88
2023-01-28T20:29:25.992Z,2.13
2023-01-28T20:32:19.119Z,1.96
2023-01-28T20:35:10.073Z,1.91
2023-01-28T20:38:04.077Z,1.99
2023-01-28T20:40:52.660Z,1.98
2023-01-28T20:43:42.652Z,1.96
2023-01-28T20:46:32.954Z,1.94
2023-01-28T20:49:21.481Z,1.87
2023-01-28T20:52:10.218Z,1.49
2023-01-28T20:55:01.602Z,1.79
2023-01-28T20:57:50.115Z,1.90
2023-01-28T21:00:38.910Z,2.01
2023-01-28T21:03:27.854Z,1.83
2023-01-28T21:06:16.640Z,1.74
2023-01-28T21:09:06.261Z,1.62
2023-01-28T21:11:56.149Z,1.67
2023-01-28T21:14:44.676Z,1.83
2023-01-28T21:17:33.381Z,1.79
2023-01-28T21:20:21.915Z,1.72
2023-01-28T21:23:14.697Z,1.76
2023-01-28T21:26:04.922Z,1.74
2023-01-28T21:28:56.126Z,1.81
2023-01-28T21:31:44.756Z,1.79
2023-01-28T21:34:33.390Z,1.61
2023-01-28T21:37:22.633Z,1.66
2023-01-28T21:40:13.414Z,1.83
2023-01-28T21:43:02.186Z,1.55
2023-01-28T21:45:57.111Z,1.66
2023-01-28T21:48:45.696Z,1.73
2023-01-28T21:51:39.205Z,1.66
2023-01-28T21:54:28.072Z,1.48
2023-01-28T21:57:16.750Z,1.62
2023-01-28T22:00:06.589Z,1.70
2023-01-28T22:02:56.519Z,1.78
2023-01-28T22:05:45.080Z,1.75
2023-01-28T22:08:33.575Z,1.76
2023-01-28T22:11:22.217Z,1.80
2023-01-28T22:14:11.401Z,1.78
2023-01-28T22:17:00.241Z,1.21
2023-01-28T22:19:50.205Z,1.54
2023-01-28T22:22:38.772Z,1.58
2023-01-28T22:25:27.471Z,1.66
2023-01-28T22:28:16.129Z,1.55
2023-01-28T22:31:09.076Z,1.55
2023-01-28T22:33:57.768Z,1.76
2023-01-28T22:36:48.268Z,1.87
2023-01-28T22:39:36.886Z,1.75
2023-01-28T22:42:25.691Z,1.94
2023-01-28T22:45:14.377Z,1.89
2023-01-28T22:48:02.872Z,1.88
2023-01-28T22:50:51.414Z,1.77
2023-01-28T22:53:41.624Z,1.71
2023-01-28T22:56:32.079Z,1.73
2023-01-28T22:59:20.601Z,1.75
2023-01-28T23:02:09.121Z,1.68
2023-01-28T23:04:57.584Z,1.66
2023-01-28T23:07:46.222Z,1.43
2023-01-28T23:10:36.093Z,1.48
2023-01-28T23:13:25.759Z,1.69
2023-01-28T23:16:31.832Z,1.68
2023-01-28T23:19:37.981Z,1.54
2023-01-28T23:22:46.216Z,1.62
2023-01-28T23:25:36.019Z,1.54
2023-01-28T23:28:24.556Z,1.59
2023-01-28T23:31:13.143Z,1.53
2023-01-28T23:34:01.776Z,1.51
2023-01-28T23:36:50.525Z,1.60
2023-01-28T23:39:39.013Z,1.49
2023-01-28T23:42:28.914Z,1.52
2023-01-28T23:45:17.767Z,1.31
2023-01-28T23:48:06.285Z,1.56
2023-01-28T23:50:55.623Z,1.35
2023-01-28T23:53:44.088Z,1.26
2023-01-28T23:56:32.567Z,1.23
2023-01-28T23:59:22.606Z,1.27
